UKLR/RWN METAR and TAF weather

Enter ICAO airport designator
Station Type Date Time Source
UKLR METAR 2021/01/15 15:00 UTC NOAA

UKLR 151500Z 27006MPS 5000 -SN OVC006 M08/M10 Q1011 R29/493226 NOSIG


Station Type Date Time Source
UKLR Decoded METAR 2021/01/15 15:00 UTC NOAA

Rivne, Ukraine (UKLR) 50-35N 026-08E
Jan 15, 2021 - 10:00 AM EST / 2021.01.15 1500 UTC
Wind: from the W (270 degrees) at 13 MPH (12 KT):0
Visibility: 3 mile(s):0
Sky conditions: overcast
Weather: light snow
Temperature: 17 F (-8 C)
Windchill: 3 F (-16 C):1
Dew Point: 14 F (-10 C)
Relative Humidity: 85%
Pressure (altimeter): 29.85 in. Hg (1011 hPa)
ob: UKLR 151500Z 27006MPS 5000 -SN OVC006 M08/M10 Q1011 R29/493226 NOSIG
cycle: 15

Station Type Date Time Source
UKLR TAF 2019/08/16 12:15 UTC NOAA

TAF TAF UKLR 161105Z 1612/1821 35003MPS 9999 BKN020 SCT023CB

Example: see airport list